Ana Sayfa
METAR-TAF:

METAR-TAF

Havaalanları :

Wellsville Municipal Airport (Tarantine Field)

Wellsville, New York, Amerika Birleşik Devletleri

Enlem: 42-06-27N, Boylam: 077-59-04W, yükseklik: 647 m

Güncel hava durumu gözlemi

Rapor saat 15:56 UTC de 18 dakika önce yapıldı.
Rüzgar batı/güneybatıdan 9 kt
Sıcaklık 28°C
Nem 74%
Basınç 1016 hPa
Görüş mesafesi: 16.1 km
1900 ft yükseklikte parçalı bulutlu
2600 ft yükseklikte parçalı bulutlu
4200 ft yükseklikte parçalı çok bulutlu

METAR: KELZ 191556Z AUTO 25009KT 10SM SCT019 SCT026 BKN042 28/23 A2999 RMK AO2 SLP138 T02780228 $

Saat: 12:14 (16:14 UTC)


TAF: eksik

4.000'den fazla havaalanı için hava durumu gözlemleri ve tahminleri (METAR ve TAF raporları).

Kullanılabilir istasyonlar harita üzerinde sarı ve kırmızı noktalarla gösterilir.

İstasyonun adını görmek için fareyi noktanın üzerinde gezdirin.

Sonrasında hava gözlem ve tahminlerini görmek için tıklayın.

Haritayı değiştirmek için: yaklaştırmak için siyah artı işaretli yeşil düğmeye ve uzaklaştırmak için de eksi işaretli düğmeye hızla tıklayın; bitişik haritalar için yeşil okları kullanın.


METAR-TAF: